Time;durP1;ratioP1;P1;durP2;ratioP2;P2;SDS_P1;SDS_P2;PMS_P1;PMS_P2;Temp;Humidity;BMP_temperature;BMP_pressure;BME280_temperature;BME280_humidity;BME280_pressure;Samples;Min_cycle;Max_cycle;Signal;HPM_P1;HPM_P2
2022/09/09 00:01:21;;;;;;;3.50;2.30;;;19.80;50.80;;;;;;5071886;28;20279;-45
2022/09/09 00:03:54;;;;;;;3.50;2.22;;;19.70;50.60;;;;;;5023169;28;20181;-44
2022/09/09 00:06:19;;;;;;;7.40;3.03;;;19.70;51.00;;;;;;5071856;28;20212;-43
2022/09/09 00:08:54;;;;;;;6.40;2.50;;;19.60;50.80;;;;;;5072050;28;20705;-44
2022/09/09 00:11:29;;;;;;;3.55;2.20;;;19.60;51.00;;;;;;5071843;28;20208;-44
2022/09/09 00:14:00;;;;;;;2.90;2.65;;;19.60;51.00;;;;;;5071793;28;20651;-44
2022/09/09 00:16:30;;;;;;;3.92;2.97;;;19.60;51.00;;;;;;5071688;28;20176;-44
2022/09/09 00:19:07;;;;;;;2.97;2.25;;;19.50;51.00;;;;;;5071874;28;20185;-43
2022/09/09 00:21:36;;;;;;;2.50;2.00;;;19.50;50.90;;;;;;5072012;28;20200;-44
2022/09/09 00:24:13;;;;;;;2.83;1.80;;;19.40;50.70;;;;;;5072040;28;20545;-44
2022/09/09 00:26:47;;;;;;;5.18;1.88;;;19.50;51.00;;;;;;5071729;28;20273;-44
2022/09/09 00:29:25;;;;;;;4.03;1.90;;;19.40;51.10;;;;;;5071913;28;20255;-44
2022/09/09 00:31:54;;;;;;;6.10;2.28;;;19.40;51.10;;;;;;5074659;28;20191;-44
2022/09/09 00:34:26;;;;;;;3.00;2.70;;;19.30;50.90;;;;;;5075845;28;20183;-44
2022/09/09 00:36:53;;;;;;;4.20;2.05;;;19.30;51.00;;;;;;5075372;28;20180;-44
2022/09/09 00:39:36;;;;;;;4.10;2.08;;;19.30;51.00;;;;;;5075746;28;20204;-43
2022/09/09 00:42:23;;;;;;;3.00;2.20;;;19.20;50.80;;;;;;5075628;28;20252;-43
2022/09/09 00:45:45;;;;;;;3.83;2.30;;;19.20;51.00;;;;;;5075356;28;20537;-44
2022/09/09 00:48:12;;;;;;;3.42;2.40;;;19.10;51.00;;;;;;4974351;28;20191;-44
2022/09/09 00:50:55;;;;;;;4.18;2.00;;;19.10;51.10;;;;;;4974156;28;20192;-43
2022/09/09 00:53:56;;;;;;;2.40;1.90;;;19.00;51.00;;;;;;4974230;28;20188;-44
2022/09/09 00:56:37;;;;;;;2.40;2.10;;;19.00;50.70;;;;;;4973989;28;20231;-43
2022/09/09 00:59:36;;;;;;;3.85;1.85;;;19.00;51.20;;;;;;4974125;28;20207;-44
2022/09/09 01:02:18;;;;;;;5.18;2.08;;;19.00;51.30;;;;;;4951254;28;20207;-44
2022/09/09 01:04:44;;;;;;;3.10;1.90;;;18.90;51.40;;;;;;4973958;28;20227;-44
2022/09/09 01:07:19;;;;;;;3.80;2.10;;;18.90;51.50;;;;;;4973727;28;20185;-44
2022/09/09 01:09:48;;;;;;;4.40;2.38;;;18.90;51.40;;;;;;4973947;28;20687;-43
2022/09/09 01:12:28;;;;;;;2.80;1.67;;;18.80;51.30;;;;;;4973599;28;20821;-44
2022/09/09 01:15:12;;;;;;;2.55;1.83;;;18.90;51.40;;;;;;4973857;28;20262;-44
2022/09/09 01:17:53;;;;;;;3.05;2.40;;;18.80;51.30;;;;;;4973749;28;20765;-44
2022/09/09 01:20:25;;;;;;;3.17;2.50;;;18.80;51.10;;;;;;5074736;28;20225;-44
2022/09/09 01:23:08;;;;;;;4.72;2.78;;;18.80;52.00;;;;;;5074653;28;20218;-44
2022/09/09 01:25:43;;;;;;;4.65;2.80;;;18.80;51.30;;;;;;5074514;28;20188;-43
2022/09/09 01:28:16;;;;;;;8.90;2.90;;;18.80;51.20;;;;;;5074901;28;20211;-44
2022/09/09 01:30:43;;;;;;;2.67;2.08;;;18.70;51.40;;;;;;5074544;28;20283;-44
2022/09/09 01:33:17;;;;;;;4.90;2.10;;;18.70;51.20;;;;;;5074426;28;20169;-43
2022/09/09 01:35:55;;;;;;;3.80;2.10;;;18.70;51.30;;;;;;5074319;28;20165;-44
2022/09/09 01:38:22;;;;;;;3.47;1.90;;;18.70;51.20;;;;;;5074455;28;20211;-44
2022/09/09 01:40:49;;;;;;;3.47;2.70;;;18.70;51.00;;;;;;5074341;28;20212;-43
2022/09/09 01:43:15;;;;;;;4.85;2.20;;;18.60;51.10;;;;;;5074214;28;20198;-43
2022/09/09 01:45:43;;;;;;;4.60;2.30;;;18.60;51.20;;;;;;5074190;28;20196;-43
2022/09/09 01:48:09;;;;;;;2.75;2.05;;;18.60;51.30;;;;;;5074219;28;20919;-44
2022/09/09 01:50:34;;;;;;;2.67;2.17;;;18.60;51.20;;;;;;5074458;28;20196;-43
2022/09/09 01:53:02;;;;;;;2.80;1.97;;;18.60;51.30;;;;;;5074396;28;20180;-44
2022/09/09 01:55:39;;;;;;;2.92;1.92;;;18.60;51.00;;;;;;5074119;28;20658;-43
2022/09/09 01:58:27;;;;;;;7.40;2.53;;;18.60;51.20;;;;;;5056128;28;20173;-43
2022/09/09 02:01:15;;;;;;;2.10;1.77;;;17.80;50.70;;;;;;5074365;28;20195;-44
2022/09/09 02:03:47;;;;;;;2.60;1.92;;;18.50;51.30;;;;;;5073964;28;20208;-43
2022/09/09 02:06:12;;;;;;;3.90;2.30;;;18.50;51.20;;;;;;5073721;28;20675;-44
2022/09/09 02:08:46;;;;;;;2.83;1.57;;;18.50;51.10;;;;;;5074143;28;20177;-44
2022/09/09 02:11:15;;;;;;;2.35;2.15;;;18.40;50.90;;;;;;5073690;28;20727;-43
2022/09/09 02:13:44;;;;;;;2.95;1.60;;;18.40;51.10;;;;;;5073883;28;20176;-44
2022/09/09 02:16:28;;;;;;;4.43;1.98;;;18.40;51.00;;;;;;5073558;28;20168;-44
2022/09/09 02:19:04;;;;;;;6.65;1.90;;;18.40;51.20;;;;;;5073770;28;20531;-43
2022/09/09 02:21:34;;;;;;;2.20;2.00;;;18.40;51.20;;;;;;5073767;28;20663;-43
2022/09/09 02:24:05;;;;;;;1.88;1.52;;;18.40;51.20;;;;;;5073594;28;20176;-43
2022/09/09 02:26:33;;;;;;;14.57;2.80;;;18.40;51.30;;;;;;5073363;28;20422;-44
2022/09/09 02:29:03;;;;;;;5.03;2.05;;;18.40;51.30;;;;;;5073461;28;20727;-44
2022/09/09 02:31:29;;;;;;;2.45;1.95;;;18.40;51.00;;;;;;5073239;28;20632;-44
2022/09/09 02:33:59;;;;;;;8.50;2.03;;;18.40;51.20;;;;;;5073354;28;20624;-43
2022/09/09 02:36:29;;;;;;;1.83;1.63;;;18.40;51.30;;;;;;5055210;28;20254;-43
2022/09/09 02:38:55;;;;;;;3.97;2.10;;;18.40;51.20;;;;;;5073564;28;20194;-44
2022/09/09 02:41:27;;;;;;;3.20;1.90;;;18.40;51.30;;;;;;5073468;28;20200;-44
2022/09/09 02:43:53;;;;;;;4.22;2.30;;;18.40;51.30;;;;;;5073133;28;20632;-43
2022/09/09 02:46:33;;;;;;;6.07;1.63;;;18.40;51.20;;;;;;5073096;28;20253;-43
2022/09/09 02:49:16;;;;;;;7.72;2.05;;;18.40;51.10;;;;;;5073417;28;20219;-43
2022/09/09 02:52:00;;;;;;;3.75;1.98;;;18.30;51.00;;;;;;5073308;28;20196;-43
2022/09/09 02:54:26;;;;;;;4.88;2.63;;;18.30;51.30;;;;;;5072507;28;20176;-43
2022/09/09 02:56:56;;;;;;;4.07;2.20;;;18.30;51.20;;;;;;5073385;28;20219;-44
2022/09/09 02:59:24;;;;;;;3.20;2.00;;;18.20;50.90;;;;;;5073129;28;20821;-44
2022/09/09 03:01:50;;;;;;;1.92;1.55;;;18.20;51.20;;;;;;5072935;28;20212;-44
2022/09/09 03:04:16;;;;;;;4.23;1.60;;;18.20;51.20;;;;;;5073062;28;20529;-45
2022/09/09 03:06:43;;;;;;;2.75;1.70;;;18.20;51.10;;;;;;5072640;28;20291;-44
2022/09/09 03:09:10;;;;;;;3.05;2.03;;;18.10;51.00;;;;;;5072887;28;20249;-45
2022/09/09 03:11:36;;;;;;;3.25;2.13;;;18.10;51.10;;;;;;5072619;28;20205;-44
2022/09/09 03:14:02;;;;;;;2.55;1.40;;;18.10;51.20;;;;;;5072857;28;20306;-43
2022/09/09 03:16:27;;;;;;;2.07;1.23;;;18.10;51.30;;;;;;5072318;28;20264;-44
2022/09/09 03:18:53;;;;;;;3.00;1.73;;;18.10;51.40;;;;;;5072507;28;20177;-44
2022/09/09 03:21:19;;;;;;;2.53;1.80;;;18.00;51.30;;;;;;5072474;28;20188;-44
2022/09/09 03:23:45;;;;;;;2.53;1.93;;;18.00;51.00;;;;;;5072435;28;20172;-44
2022/09/09 03:26:11;;;;;;;2.70;1.70;;;18.00;51.30;;;;;;5072176;28;20208;-44
2022/09/09 03:28:37;;;;;;;3.03;1.45;;;18.10;51.50;;;;;;5072315;28;20172;-45
2022/09/09 03:31:05;;;;;;;6.15;1.63;;;18.10;51.60;;;;;;5072233;28;20201;-44
2022/09/09 03:33:31;;;;;;;2.58;1.70;;;18.10;51.70;;;;;;5072366;28;20181;-43
2022/09/09 03:35:57;;;;;;;2.90;1.77;;;18.10;51.60;;;;;;5072103;28;20249;-44
2022/09/09 03:38:24;;;;;;;2.50;2.22;;;18.20;51.70;;;;;;5072152;28;20493;-44
2022/09/09 03:40:54;;;;;;;13.48;1.92;;;18.20;51.80;;;;;;5072158;28;20694;-44
2022/09/09 03:43:21;;;;;;;2.30;1.70;;;18.20;51.80;;;;;;5072266;28;20164;-43
2022/09/09 03:45:47;;;;;;;7.88;1.95;;;18.30;51.80;;;;;;5071906;28;20246;-45
2022/09/09 03:48:15;;;;;;;2.37;2.07;;;18.30;51.70;;;;;;5072225;28;20177;-44
2022/09/09 03:50:52;;;;;;;2.42;1.98;;;18.30;51.90;;;;;;5072365;28;20508;-43
2022/09/09 03:53:20;;;;;;;3.70;1.75;;;18.30;51.70;;;;;;5072267;28;20262;-43
2022/09/09 03:55:53;;;;;;;5.70;2.53;;;18.30;51.80;;;;;;5071845;28;20543;-44
2022/09/09 03:58:18;;;;;;;4.45;2.70;;;18.30;51.70;;;;;;5072248;28;20195;-44
2022/09/09 04:00:54;;;;;;;3.17;1.67;;;18.30;51.70;;;;;;5071803;28;20231;-43
2022/09/09 04:03:20;;;;;;;2.63;2.00;;;18.20;51.70;;;;;;5054387;28;20252;-44
2022/09/09 04:05:49;;;;;;;3.63;1.97;;;18.30;51.70;;;;;;5070764;28;20291;-44
2022/09/09 04:08:15;;;;;;;2.60;1.50;;;18.30;51.60;;;;;;5072040;28;20176;-44
2022/09/09 04:10:41;;;;;;;3.53;1.80;;;18.20;51.60;;;;;;5071946;28;20219;-44
2022/09/09 04:13:07;;;;;;;2.38;2.00;;;18.30;51.70;;;;;;5071977;28;20699;-44
2022/09/09 04:15:35;;;;;;;3.97;2.33;;;18.20;51.50;;;;;;5071619;28;20212;-44
2022/09/09 04:18:01;;;;;;;3.10;2.25;;;18.20;51.70;;;;;;5071854;28;20184;-43
2022/09/09 04:20:27;;;;;;;4.40;2.70;;;18.30;51.80;;;;;;5071644;28;20203;-44
2022/09/09 04:22:52;;;;;;;5.90;1.87;;;18.30;52.00;;;;;;5072003;28;20221;-44
2022/09/09 04:25:18;;;;;;;6.60;1.60;;;18.30;52.00;;;;;;5071657;28;20446;-43
2022/09/09 04:27:44;;;;;;;2.63;2.00;;;18.30;51.90;;;;;;5053651;28;20172;-44
2022/09/09 04:30:11;;;;;;;4.20;2.20;;;18.30;51.90;;;;;;5071759;28;20399;-45
2022/09/09 04:32:36;;;;;;;2.40;1.58;;;18.30;51.90;;;;;;5071954;28;20187;-43
2022/09/09 04:35:03;;;;;;;5.30;2.13;;;18.40;51.70;;;;;;5071975;28;20252;-44
2022/09/09 04:37:29;;;;;;;2.47;1.92;;;18.40;51.80;;;;;;5071666;28;20226;-44
2022/09/09 04:39:54;;;;;;;2.53;1.80;;;18.30;51.70;;;;;;5071914;28;20616;-44
2022/09/09 04:42:20;;;;;;;3.03;1.90;;;18.30;51.70;;;;;;5071815;28;20189;-45
2022/09/09 04:44:46;;;;;;;3.07;1.80;;;18.30;51.80;;;;;;5071563;28;20717;-44
2022/09/09 04:47:13;;;;;;;5.70;1.93;;;18.30;52.00;;;;;;5071269;28;20737;-44
2022/09/09 04:49:39;;;;;;;3.95;2.30;;;18.30;52.00;;;;;;5071586;28;20169;-45
2022/09/09 04:52:04;;;;;;;3.20;2.10;;;18.30;52.10;;;;;;5071488;28;20211;-45
2022/09/09 04:54:30;;;;;;;2.90;2.20;;;18.30;52.00;;;;;;5071808;28;20171;-44
2022/09/09 04:56:56;;;;;;;2.70;2.17;;;18.30;52.10;;;;;;5071368;28;20667;-44
2022/09/09 04:59:22;;;;;;;3.23;2.77;;;18.40;52.10;;;;;;5071419;28;20298;-43
2022/09/09 05:01:49;;;;;;;5.10;2.30;;;18.40;52.20;;;;;;5071377;28;20945;-43
2022/09/09 05:04:16;;;;;;;3.40;2.63;;;18.40;52.20;;;;;;5071396;28;20704;-44
2022/09/09 05:06:42;;;;;;;4.32;2.30;;;18.40;52.10;;;;;;5070983;28;20282;-44
2022/09/09 05:09:08;;;;;;;2.90;2.20;;;18.40;52.20;;;;;;5071392;28;20211;-44
2022/09/09 05:11:38;;;;;;;5.15;2.83;;;18.50;52.30;;;;;;5071154;28;20740;-44
2022/09/09 05:14:04;;;;;;;3.80;2.40;;;18.50;52.50;;;;;;5071190;28;20645;-44
2022/09/09 05:16:31;;;;;;;6.18;2.15;;;18.60;52.50;;;;;;5071815;28;20628;-43
2022/09/09 05:18:57;;;;;;;3.65;2.20;;;18.60;52.50;;;;;;5074832;28;20185;-44
2022/09/09 05:21:26;;;;;;;2.97;2.05;;;18.70;52.70;;;;;;5074651;28;20208;-44
2022/09/09 05:23:52;;;;;;;4.45;2.10;;;18.70;52.80;;;;;;5075048;28;20595;-44
2022/09/09 05:26:20;;;;;;;2.97;2.67;;;18.70;52.70;;;;;;5074321;28;20287;-44
2022/09/09 05:28:47;;;;;;;5.97;2.40;;;18.80;52.50;;;;;;5074865;28;20413;-44
2022/09/09 05:31:15;;;;;;;3.08;2.00;;;18.80;52.50;;;;;;5074631;28;20725;-44
2022/09/09 05:33:45;;;;;;;3.25;2.42;;;18.90;52.50;;;;;;5074535;28;20169;-45
2022/09/09 05:36:13;;;;;;;2.83;2.10;;;18.90;52.50;;;;;;5074298;28;20180;-44
2022/09/09 05:38:40;;;;;;;2.70;2.25;;;18.90;52.40;;;;;;5074440;28;20177;-44
2022/09/09 05:41:07;;;;;;;4.35;2.65;;;19.00;52.40;;;;;;5074439;28;20196;-44
2022/09/09 05:43:35;;;;;;;3.03;2.65;;;19.10;52.40;;;;;;5074591;28;20200;-44
2022/09/09 05:46:07;;;;;;;2.90;2.40;;;19.10;52.30;;;;;;5074585;28;20224;-44
2022/09/09 05:48:37;;;;;;;2.65;2.25;;;19.20;52.30;;;;;;5074857;28;20157;-44
2022/09/09 05:51:04;;;;;;;2.30;2.10;;;19.20;52.00;;;;;;5074165;28;20220;-44
2022/09/09 05:53:37;;;;;;;3.88;2.35;;;19.30;52.10;;;;;;5074064;28;20775;-44
2022/09/09 05:56:14;;;;;;;2.33;2.13;;;19.30;52.10;;;;;;5073973;28;20616;-44
2022/09/09 05:58:43;;;;;;;3.35;1.95;;;19.30;51.60;;;;;;5074181;28;20169;-45
2022/09/09 06:01:19;;;;;;;5.05;2.45;;;19.30;51.60;;;;;;5073959;28;20204;-45
2022/09/09 06:03:47;;;;;;;3.25;2.25;;;19.40;51.40;;;;;;5074044;28;20160;-44
2022/09/09 06:06:15;;;;;;;4.57;3.30;;;19.30;51.40;;;;;;5073827;28;20228;-44
2022/09/09 06:08:46;;;;;;;4.43;2.42;;;19.40;52.10;;;;;;5073901;28;20165;-44
2022/09/09 06:11:23;;;;;;;4.18;2.83;;;19.40;51.30;;;;;;5073813;28;20270;-44
2022/09/09 06:13:53;;;;;;;7.20;2.60;;;19.50;51.50;;;;;;5073905;28;20149;-45
2022/09/09 06:16:22;;;;;;;3.90;2.13;;;19.50;51.40;;;;;;5073562;28;20208;-44
2022/09/09 06:18:49;;;;;;;2.60;2.30;;;19.60;51.30;;;;;;5074002;28;20183;-43
2022/09/09 06:21:26;;;;;;;3.85;1.90;;;19.60;51.50;;;;;;5073717;28;20228;-45
2022/09/09 06:23:52;;;;;;;2.50;1.98;;;19.60;51.30;;;;;;5073884;28;20168;-44
2022/09/09 06:26:25;;;;;;;3.17;2.10;;;19.70;51.30;;;;;;5073193;28;20679;-44
2022/09/09 06:28:52;;;;;;;4.22;3.13;;;19.70;51.10;;;;;;5072943;28;20555;-45
2022/09/09 06:31:21;;;;;;;2.60;2.40;;;19.80;51.10;;;;;;5073398;28;20192;-44
2022/09/09 06:33:49;;;;;;;3.78;2.13;;;19.80;51.10;;;;;;5073341;28;20614;-44
2022/09/09 06:36:20;;;;;;;5.38;2.63;;;19.90;51.30;;;;;;5073279;28;20182;-45
2022/09/09 06:38:47;;;;;;;2.75;2.55;;;19.90;51.10;;;;;;5073367;28;20176;-44
2022/09/09 06:41:15;;;;;;;2.25;2.05;;;20.00;51.00;;;;;;5073180;28;20208;-45
2022/09/09 06:43:41;;;;;;;3.33;2.90;;;20.00;50.80;;;;;;5073245;28;20180;-45
2022/09/09 06:46:10;;;;;;;3.00;2.23;;;20.10;51.00;;;;;;5073165;28;20201;-44
2022/09/09 06:48:38;;;;;;;2.88;2.67;;;20.10;51.00;;;;;;5073430;28;20176;-43
2022/09/09 06:51:26;;;;;;;8.18;3.20;;;20.10;50.80;;;;;;5073180;28;20200;-43
2022/09/09 06:53:54;;;;;;;4.20;2.70;;;20.20;50.90;;;;;;5072269;28;20211;-44
2022/09/09 06:56:30;;;;;;;4.57;3.00;;;20.30;51.00;;;;;;5072841;28;20183;-43
2022/09/09 06:58:58;;;;;;;2.75;2.33;;;20.40;50.80;;;;;;5073095;28;20176;-43
2022/09/09 07:01:30;;;;;;;5.18;2.70;;;20.40;50.00;;;;;;5072753;28;20265;-44
2022/09/09 07:03:58;;;;;;;4.80;2.60;;;20.40;49.90;;;;;;5073077;28;20168;-44
2022/09/09 07:06:27;;;;;;;3.22;2.30;;;20.50;49.80;;;;;;5072288;28;20196;-44
2022/09/09 07:08:55;;;;;;;6.03;2.38;;;20.50;50.00;;;;;;5072791;28;20164;-43
2022/09/09 07:11:22;;;;;;;3.95;2.42;;;20.60;49.90;;;;;;5072420;28;20204;-43
2022/09/09 07:13:49;;;;;;;6.10;2.85;;;20.60;49.30;;;;;;5072632;28;20164;-43
2022/09/09 07:16:20;;;;;;;3.10;2.72;;;20.60;49.60;;;;;;5072612;28;20540;-43
2022/09/09 07:18:46;;;;;;;3.88;2.72;;;20.70;49.50;;;;;;5072574;28;20157;-44
2022/09/09 07:21:13;;;;;;;3.65;2.28;;;20.80;50.00;;;;;;5072640;28;20212;-44
2022/09/09 07:23:40;;;;;;;3.85;2.42;;;20.90;50.30;;;;;;5072434;28;20176;-43
2022/09/09 07:26:14;;;;;;;5.78;2.95;;;21.00;50.40;;;;;;5072231;28;20215;-44
2022/09/09 07:28:41;;;;;;;4.38;2.70;;;21.20;50.70;;;;;;5072589;28;20210;-42
2022/09/09 07:31:15;;;;;;;4.70;2.47;;;21.30;50.60;;;;;;5072693;28;20188;-42
2022/09/09 07:33:41;;;;;;;2.83;2.38;;;21.50;50.10;;;;;;5072334;28;20173;-42
2022/09/09 07:36:10;;;;;;;4.03;2.57;;;21.50;49.40;;;;;;5072436;28;20186;-44
2022/09/09 07:38:45;;;;;;;3.10;2.33;;;21.60;49.40;;;;;;5072311;28;20421;-43
2022/09/09 07:41:14;;;;;;;3.97;2.43;;;21.60;48.80;;;;;;5071992;28;20437;-43
2022/09/09 07:43:44;;;;;;;5.70;2.37;;;21.70;48.90;;;;;;5072198;28;20414;-43
2022/09/09 07:46:11;;;;;;;5.00;2.47;;;21.90;49.20;;;;;;5072096;28;20796;-44
2022/09/09 07:48:39;;;;;;;3.33;2.23;;;22.00;49.70;;;;;;5072389;28;20456;-42
2022/09/09 07:51:11;;;;;;;2.50;1.80;;;22.20;49.00;;;;;;5072156;28;20477;-44
2022/09/09 07:53:38;;;;;;;2.40;1.63;;;22.40;48.50;;;;;;5072215;28;20398;-43
2022/09/09 07:56:11;;;;;;;5.60;1.87;;;22.50;48.40;;;;;;5071742;28;20418;-43
2022/09/09 07:58:39;;;;;;;2.53;2.10;;;22.60;47.60;;;;;;5071977;28;20410;-43
2022/09/09 08:01:19;;;;;;;1.83;1.30;;;22.70;48.00;;;;;;5072169;28;20536;-44
2022/09/09 08:03:46;;;;;;;2.70;1.90;;;22.80;47.40;;;;;;5072086;28;20394;-44
2022/09/09 08:06:13;;;;;;;2.70;2.17;;;22.80;46.60;;;;;;5071639;28;20469;-43
2022/09/09 08:08:41;;;;;;;3.37;1.97;;;22.80;46.70;;;;;;5072129;28;20505;-43
2022/09/09 08:11:14;;;;;;;5.27;1.87;;;22.80;46.50;;;;;;5071580;28;20500;-43
2022/09/09 08:13:41;;;;;;;4.87;2.50;;;22.90;46.90;;;;;;5071882;28;20414;-42
2022/09/09 08:16:11;;;;;;;2.87;2.13;;;22.90;47.30;;;;;;5071585;28;20414;-43
2022/09/09 08:18:38;;;;;;;2.67;1.70;;;22.90;47.70;;;;;;5071792;28;20417;-42
2022/09/09 08:21:12;;;;;;;8.13;2.20;;;23.00;47.60;;;;;;5071711;28;20426;-43
2022/09/09 08:23:42;;;;;;;2.93;1.80;;;23.00;47.70;;;;;;5071716;28;20395;-42
2022/09/09 08:26:16;;;;;;;4.57;2.00;;;23.00;47.80;;;;;;5071697;28;20503;-44
2022/09/09 08:28:42;;;;;;;2.87;2.30;;;23.10;48.10;;;;;;5071717;28;20478;-44
2022/09/09 08:31:10;;;;;;;2.73;1.93;;;23.00;48.10;;;;;;5071901;28;20458;-43
2022/09/09 08:33:38;;;;;;;3.37;2.20;;;23.10;48.30;;;;;;5071636;28;20434;-43
2022/09/09 08:36:05;;;;;;;2.63;2.20;;;23.20;48.60;;;;;;5071363;28;20536;-43
2022/09/09 08:38:30;;;;;;;3.00;1.70;;;23.20;48.40;;;;;;5071779;28;20419;-43
2022/09/09 08:41:21;;;;;;;4.37;2.40;;;23.20;47.70;;;;;;5071689;28;20996;-44
2022/09/09 08:43:50;;;;;;;3.40;2.00;;;23.30;47.50;;;;;;5071653;28;20169;-44
2022/09/09 08:46:26;;;;;;;5.20;2.10;;;23.30;47.60;;;;;;5071242;28;20453;-44
2022/09/09 08:49:22;;;;;;;3.33;2.07;;;23.40;47.60;;;;;;5071821;28;20430;-43
2022/09/09 08:51:49;;;;;;;3.50;2.20;;;23.40;47.50;;;;;;5072575;28;20423;-44
2022/09/09 08:54:15;;;;;;;2.67;1.70;;;23.50;47.90;;;;;;5075139;28;20406;-43
2022/09/09 08:56:41;;;;;;;3.00;2.00;;;23.60;48.20;;;;;;5074961;28;20464;-44
2022/09/09 08:59:11;;;;;;;3.83;2.60;;;23.70;48.20;;;;;;5075063;28;20418;-44
2022/09/09 09:01:49;;;;;;;6.23;2.83;;;23.80;48.20;;;;;;5075461;28;20925;-43
2022/09/09 09:04:44;;;;;;;3.83;1.97;;;23.90;47.80;;;;;;5075065;28;20406;-43
2022/09/09 09:07:28;;;;;;;3.93;1.90;;;24.00;47.70;;;;;;5074659;28;20496;-44
2022/09/09 09:10:00;;;;;;;3.73;1.70;;;24.00;47.50;;;;;;5075172;28;20494;-44
2022/09/09 09:12:31;;;;;;;6.33;2.40;;;24.00;47.10;;;;;;5074710;28;20465;-44
2022/09/09 09:14:59;;;;;;;2.60;2.13;;;24.00;46.90;;;;;;5075037;28;20402;-44
2022/09/09 09:17:31;;;;;;;6.47;1.73;;;24.00;46.30;;;;;;5074886;28;20437;-44
2022/09/09 09:19:59;;;;;;;2.57;1.40;;;24.00;45.00;;;;;;5075045;28;20395;-44
2022/09/09 09:22:46;;;;;;;3.90;2.10;;;24.00;45.10;;;;;;5074862;28;20484;-43
2022/09/09 09:25:19;;;;;;;3.87;2.17;;;24.10;45.90;;;;;;5074778;28;20407;-44
2022/09/09 09:28:12;;;;;;;3.20;2.07;;;24.00;46.40;;;;;;5074752;28;20387;-43
2022/09/09 09:30:50;;;;;;;4.83;2.70;;;24.00;46.70;;;;;;5074584;28;20415;-44
2022/09/09 09:33:40;;;;;;;5.37;2.17;;;23.90;47.50;;;;;;5074833;28;20427;-43
2022/09/09 09:36:08;;;;;;;5.23;2.73;;;23.90;47.60;;;;;;5074389;28;20421;-44
2022/09/09 09:38:35;;;;;;;3.50;2.37;;;23.70;48.00;;;;;;5074367;28;20482;-43
2022/09/09 09:41:01;;;;;;;5.73;2.00;;;23.70;48.10;;;;;;5074303;28;20492;-44
2022/09/09 09:43:36;;;;;;;3.50;2.00;;;23.70;48.40;;;;;;5074276;28;20403;-44
2022/09/09 09:46:04;;;;;;;4.90;2.63;;;23.70;49.40;;;;;;5074055;28;20976;-43
2022/09/09 09:48:30;;;;;;;3.00;1.87;;;23.70;49.30;;;;;;5074378;28;20449;-44
2022/09/09 09:51:02;;;;;;;4.13;1.70;;;23.70;49.70;;;;;;5074209;28;20423;-44
2022/09/09 09:53:34;;;;;;;4.67;1.60;;;23.80;49.80;;;;;;5074151;28;20414;-44
2022/09/09 09:56:08;;;;;;;5.30;1.83;;;23.90;49.30;;;;;;5074027;28;20494;-44
2022/09/09 09:58:44;;;;;;;3.40;1.73;;;23.90;48.50;;;;;;5074256;28;20456;-44
2022/09/09 10:01:27;;;;;;;2.17;1.40;;;24.10;49.40;;;;;;5074554;28;20426;-44
2022/09/09 10:03:59;;;;;;;3.20;1.40;;;24.30;50.40;;;;;;5072954;28;20411;-44
2022/09/09 10:06:36;;;;;;;3.80;2.10;;;24.50;49.10;;;;;;5073794;28;20485;-43
2022/09/09 10:09:20;;;;;;;5.33;1.80;;;24.60;48.80;;;;;;5074033;28;20487;-43
2022/09/09 10:12:24;;;;;;;4.80;1.60;;;24.70;48.60;;;;;;5073584;28;20533;-43
2022/09/09 10:14:50;;;;;;;2.20;1.60;;;24.90;48.50;;;;;;5073959;28;20449;-43
2022/09/09 10:17:45;;;;;;;2.30;1.23;;;24.90;48.80;;;;;;5073454;28;20410;-44
2022/09/09 10:20:23;;;;;;;3.93;1.20;;;25.10;48.30;;;;;;5073630;28;20200;-44
2022/09/09 10:22:52;;;;;;;5.30;1.73;;;25.10;48.30;;;;;;5073903;28;20464;-44
2022/09/09 10:25:32;;;;;;;7.20;1.67;;;25.20;47.60;;;;;;5073919;28;20804;-43
2022/09/09 10:28:11;;;;;;;2.93;1.87;;;25.30;47.10;;;;;;5073430;28;20430;-43
2022/09/09 10:30:50;;;;;;;5.63;1.90;;;25.40;47.10;;;;;;5074048;28;20480;-43
2022/09/09 10:33:47;;;;;;;6.13;2.00;;;25.50;47.50;;;;;;5074092;28;20410;-44
2022/09/09 10:36:18;;;;;;;3.53;1.50;;;25.50;46.50;;;;;;5073595;28;20470;-44
2022/09/09 10:39:25;;;;;;;4.10;1.40;;;25.60;46.30;;;;;;5075824;28;20399;-43
2022/09/09 10:42:12;;;;;;;2.07;1.10;;;25.70;46.00;;;;;;5039657;28;20434;-44
2022/09/09 10:45:01;;;;;;;3.60;1.67;;;25.80;44.90;;;;;;5074415;28;20388;-44
2022/09/09 10:47:52;;;;;;;1.90;0.83;;;25.90;45.30;;;;;;5073839;28;20527;-43
2022/09/09 10:50:33;;;;;;;4.23;1.83;;;26.00;44.70;;;;;;5073316;28;20470;-43
2022/09/09 10:53:15;;;;;;;3.57;1.00;;;26.10;45.60;;;;;;5073244;28;20476;-43
2022/09/09 10:55:50;;;;;;;3.63;1.97;;;26.20;44.10;;;;;;5072705;28;20436;-43
2022/09/09 10:58:34;;;;;;;4.23;1.33;;;26.30;44.10;;;;;;5073327;28;20390;-44
2022/09/09 11:01:09;;;;;;;5.23;2.00;;;26.40;43.60;;;;;;5072951;28;20418;-43
2022/09/09 11:03:38;;;;;;;2.83;1.20;;;26.40;43.60;;;;;;5073144;28;20494;-44
2022/09/09 11:06:18;;;;;;;2.20;1.20;;;26.40;43.20;;;;;;5072341;28;20442;-44
2022/09/09 11:08:44;;;;;;;4.13;1.70;;;26.50;42.70;;;;;;5072976;28;20498;-42
2022/09/09 11:11:29;;;;;;;2.77;1.23;;;26.40;42.30;;;;;;5072583;28;20454;-44
2022/09/09 11:14:14;;;;;;;4.63;1.40;;;26.30;42.10;;;;;;5072348;28;20434;-43
2022/09/09 11:16:50;;;;;;;2.73;1.20;;;26.20;42.60;;;;;;5072250;28;20452;-43
2022/09/09 11:19:35;;;;;;;2.00;1.10;;;26.00;42.70;;;;;;5072803;28;20739;-43
2022/09/09 11:22:21;;;;;;;2.67;1.07;;;25.90;42.00;;;;;;5072529;28;20430;-42
2022/09/09 11:24:50;;;;;;;3.60;1.37;;;25.80;42.10;;;;;;5071923;28;20922;-43
2022/09/09 11:27:30;;;;;;;2.73;1.80;;;25.60;42.60;;;;;;5072350;28;20446;-42
2022/09/09 11:30:17;;;;;;;3.27;2.00;;;25.50;43.10;;;;;;5072527;28;20399;-43
2022/09/09 11:32:46;;;;;;;1.93;1.43;;;25.40;43.70;;;;;;5072387;28;20399;-43
2022/09/09 11:35:23;;;;;;;2.43;1.70;;;25.30;43.30;;;;;;5072215;28;20789;-42
2022/09/09 11:38:15;;;;;;;2.43;1.70;;;25.30;43.90;;;;;;5072045;28;20398;-43
2022/09/09 11:40:41;;;;;;;6.00;2.10;;;25.30;44.60;;;;;;5058683;28;20462;-43
2022/09/09 11:43:12;;;;;;;2.73;1.20;;;25.30;44.50;;;;;;5072151;28;20402;-43
2022/09/09 11:45:39;;;;;;;1.50;1.20;;;25.40;44.00;;;;;;5071778;28;20984;-43
2022/09/09 11:48:08;;;;;;;4.40;1.50;;;25.50;44.00;;;;;;5072125;28;20813;-44
2022/09/09 11:50:37;;;;;;;2.00;1.20;;;25.40;43.90;;;;;;5071965;28;20476;-44
2022/09/09 11:53:13;;;;;;;6.10;1.87;;;25.40;43.80;;;;;;5072098;28;20438;-44
2022/09/09 11:55:39;;;;;;;4.20;1.50;;;25.40;43.60;;;;;;5071801;28;20410;-43
2022/09/09 11:58:11;;;;;;;2.33;1.30;;;25.40;43.90;;;;;;5072227;28;20414;-44
2022/09/09 12:00:41;;;;;;;1.83;1.53;;;25.40;43.80;;;;;;5072125;28;20430;-44
2022/09/09 12:03:38;;;;;;;4.23;2.17;;;25.40;43.80;;;;;;5072208;28;20399;-43
2022/09/09 12:06:16;;;;;;;4.80;1.20;;;25.40;43.40;;;;;;5071630;28;20998;-43
2022/09/09 12:08:46;;;;;;;3.20;1.37;;;25.50;43.50;;;;;;5071984;28;20395;-43
2022/09/09 12:11:11;;;;;;;3.60;1.17;;;25.70;43.90;;;;;;5071738;28;20447;-43
2022/09/09 12:13:37;;;;;;;3.63;1.13;;;25.90;43.20;;;;;;5071867;28;20447;-44
2022/09/09 12:16:05;;;;;;;4.50;1.50;;;26.00;43.50;;;;;;5071836;28;20415;-45
2022/09/09 12:18:36;;;;;;;5.20;1.60;;;26.00;42.90;;;;;;5072030;28;20411;-42
2022/09/09 12:21:12;;;;;;;3.53;1.60;;;26.00;42.40;;;;;;5071681;28;20439;-42
2022/09/09 12:23:50;;;;;;;4.23;1.70;;;25.90;42.00;;;;;;5072140;28;20395;-44
2022/09/09 12:26:24;;;;;;;3.20;1.70;;;25.80;41.60;;;;;;5072178;28;20441;-42
2022/09/09 12:29:03;;;;;;;3.00;1.53;;;25.80;42.10;;;;;;5076010;28;20409;-43
2022/09/09 12:31:42;;;;;;;2.27;1.70;;;25.70;42.30;;;;;;5075564;28;20952;-43
2022/09/09 12:34:22;;;;;;;2.60;1.90;;;25.60;42.70;;;;;;5075992;28;20473;-44
2022/09/09 12:36:54;;;;;;;2.60;1.70;;;25.50;43.10;;;;;;5075504;28;20395;-43
2022/09/09 12:39:28;;;;;;;2.87;1.33;;;25.50;43.60;;;;;;5075591;28;20747;-45
2022/09/09 12:41:56;;;;;;;2.60;1.60;;;25.50;43.70;;;;;;5075649;28;20506;-45
2022/09/09 12:44:23;;;;;;;3.07;1.77;;;25.70;43.90;;;;;;5075401;28;20414;-44
2022/09/09 12:46:50;;;;;;;4.67;1.70;;;25.90;43.90;;;;;;5075340;28;20458;-45
2022/09/09 12:49:27;;;;;;;3.90;1.53;;;26.20;44.50;;;;;;5075352;28;20452;-45
2022/09/09 12:51:54;;;;;;;2.50;1.57;;;26.40;44.40;;;;;;5075338;28;20775;-45
2022/09/09 12:54:21;;;;;;;6.80;1.67;;;26.70;43.70;;;;;;5075220;28;20406;-45
2022/09/09 12:56:48;;;;;;;2.30;1.60;;;26.90;43.80;;;;;;5075185;28;20411;-45
2022/09/09 12:59:39;;;;;;;3.40;1.80;;;27.10;44.30;;;;;;5075393;28;20485;-45
2022/09/09 13:02:24;;;;;;;2.70;2.00;;;27.50;43.30;;;;;;5063161;28;20442;-45
2022/09/09 13:04:50;;;;;;;5.87;1.50;;;27.60;43.00;;;;;;5075036;28;21167;-45
2022/09/09 13:07:17;;;;;;;2.67;1.60;;;27.70;42.40;;;;;;5074797;28;20458;-44
2022/09/09 13:09:44;;;;;;;3.13;1.77;;;27.80;41.10;;;;;;5074991;28;20411;-44
2022/09/09 13:12:22;;;;;;;3.20;1.60;;;27.80;40.20;;;;;;5074808;28;20521;-44
2022/09/09 13:14:52;;;;;;;4.70;2.00;;;27.60;39.80;;;;;;5075270;28;20409;-45